DV4 weather

CLOSED Digby Water Aerodrome
Digby, Nova Scotia, Canada

Public forecast

Using degrees Celsius for public forecast. Weather courtesy of forecast.io.

METAR (pilot weather report)

Closest report is CFB Greenwood, 41.4 nm (76.6 km) ENE. Retrieved 2019/08/24 20:00 UTC (59 minutes ago):

CYZX 242000Z 04014G19KT 15SM SCT027 BKN050 19/12 A3018 RMK CU3SC3 SLP221

TAF (pilot weather forecast)

Closest forecast is CFB Greenwood, 41.4 nm (76.6 km) ENE. Retrieved 2019/08/24 18:39 UTC (2 hours ago):

TAF CYZX 241736Z 2418/2518 02015KT P6SM BKN030 BECMG 2422/2424 04008KT FM250200 05005KT P6SM SCT030 FM250600 VRB03KT P6SM SKC BECMG 2512/2514 05005KT BECMG 2516/2518 05010KT RMK NXT FCST BY 250000Z